Airfield :
LOGIN :

Register | Disclaimer

   EN    FR    IT 

 










Legend :    VFR   Marginal VFR   IFR   Intensive IFR   Very Intensive IFR
Visi :
Ceiling :
>= 8 km
>= 3000ft
5 to 8 km
1000 to 3000 ft
1500m to 5 km
500 to 1000 ft
800 to 1500m
200 to 500 ft
< 800m
< 200 ft
Symbols :   Thunderstorms  Fog  Heavy snow  Heavy precipitations  Wind > 20 kt
SIGMETs :     Misc.  Thunderstorms  Icing  Turbulence  Mountain Waves  Volcanic Ashes







- Airport Elevation : 49 ft
- IATA code : GLZ


EHGR - Gilze-Rijen Airbase

CURRENT METAR :
  • 190255Z AUTO 04006KT 360V060 9999 OVC040 08/07 Q1025 BLU

EXPIRED METARs :
  • 190225Z AUTO 03007KT 350V070 9999 OVC040 08/07 Q1025 BLU
  • 190155Z AUTO 03007KT 350V070 9999 BKN040 08/07 Q1025 BLU
  • 190125Z AUTO 03005KT 010V140 9999 BKN039 08/06 Q1025 BLU
  • 190055Z AUTO 03005KT 350V080 9999 BKN038 08/07 Q1025 BLU
  • 190025Z AUTO 03007KT 350V090 9999 OVC037 09/07 Q1025 BLU

TAF TAF EHGR
Valid from the 18 at 17:00 until the 19 at 05:00 UTC


181616Z 1817/1905 03006KT 9999 FEW030
BECMG 1903/1905 4000 BR
No reported NOTAMs for that airfield.



MET'MAP, your aeronautical weather chart ! - Copyright ORBIFLY December 2007 - Disclaimer

ORBIFLY MET'MAP TEAM :

Programming & Development : Alexandra Zaïnal
Concept & Development : Baudouin d'Aumeries
Co-Development & Prog : Marc-Olivier Méhu
Technical & hardware support : Manuel Goepfert

Contact : metmap@orbifly.com




SOURCES & CREDITS :

   NOAA